Terminal Aerodrome Forecast
Issued by NWS

Home | Current Version | Previous Version | Text Only | Print | Product List | Glossary Off
Versions: 1 2 3 4 5 6 7 8 9 10 11 12 13 14 15 16 17 18 19 20 21 22 23

000
FTUS45 KGGW 172300
TAFOLF
TAF
KOLF 172320Z 1800/1824 30011KT P6SM BKN070
      TEMPO 1800/1803 VRB20G40KT -TSRA BKN050CB
     FM180300 28008KT P6SM BKN060
     FM180600 VRB04KT P6SM BKN100=

USA.gov is the U.S. government's official web portal to all federal, state and local government web resources and services.